Time;durP1;ratioP1;P1;durP2;ratioP2;P2;SDS_P1;SDS_P2;PMS_P1;PMS_P2;Temp;Humidity;BMP_temperature;BMP_pressure;BME280_temperature;BME280_humidity;BME280_pressure;Samples;Min_cycle;Max_cycle;Signal;HPM_P1;HPM_P2
2022/10/26 00:17:07;;;;;;;20.95;15.80;;;10.70;99.90;;;;;;6213857;22;20251;-90
2022/10/26 00:19:37;;;;;;;21.05;16.77;;;10.70;99.90;;;;;;6179481;22;20264;-92
2022/10/26 00:22:04;;;;;;;18.98;15.07;;;10.60;99.90;;;;;;6267017;22;20179;-91
2022/10/26 00:24:31;;;;;;;21.33;15.85;;;10.50;99.90;;;;;;6178017;22;20621;-91
2022/10/26 01:31:46;;;;;;;23.73;15.77;;;10.00;99.90;;;;;;6234128;22;20238;-88
2022/10/26 01:36:55;;;;;;;19.50;15.95;;;10.00;99.90;;;;;;6262917;22;20175;-90
2022/10/26 01:39:48;;;;;;;21.58;16.42;;;10.00;99.90;;;;;;6242052;23;20160;-89
2022/10/26 01:48:06;;;;;;;26.85;18.25;;;10.00;99.90;;;;;;6240466;23;20156;-90
2022/10/26 01:50:37;;;;;;;27.02;17.40;;;10.00;99.90;;;;;;6215009;23;20172;-90
2022/10/26 03:43:40;;;;;;;23.33;13.38;;;9.50;99.90;;;;;;6228858;22;20179;-90
2022/10/26 03:46:07;;;;;;;16.42;13.85;;;9.50;99.90;;;;;;6273543;22;20151;-90
2022/10/26 03:48:34;;;;;;;14.68;13.05;;;9.50;99.90;;;;;;6299633;22;20182;-91
2022/10/26 03:51:01;;;;;;;25.10;15.00;;;9.50;99.90;;;;;;6273968;22;20162;-92
2022/10/26 03:53:28;;;;;;;18.15;14.60;;;9.40;99.90;;;;;;6273811;22;20216;-91
2022/10/26 03:55:55;;;;;;;20.70;14.52;;;9.30;99.90;;;;;;6273576;22;20190;-90
2022/10/26 03:58:22;;;;;;;21.63;17.00;;;9.30;99.90;;;;;;6273722;22;20150;-92
2022/10/26 04:00:49;;;;;;;23.25;17.70;;;9.30;99.90;;;;;;6274123;22;20159;-91
2022/10/26 04:03:17;;;;;;;23.38;18.08;;;9.30;99.90;;;;;;6275956;22;20161;-91
2022/10/26 04:05:44;;;;;;;24.98;18.00;;;9.40;99.90;;;;;;6276007;22;20203;-92
2022/10/26 04:08:11;;;;;;;24.38;17.30;;;9.40;99.90;;;;;;6275803;22;20182;-91
2022/10/26 04:10:38;;;;;;;21.48;18.10;;;9.40;99.90;;;;;;6299713;22;20152;-91
2022/10/26 04:48:05;;;;;;;27.60;18.45;;;9.20;99.90;;;;;;6290844;22;20148;-91
2022/10/26 04:50:35;;;;;;;23.52;17.80;;;9.10;99.90;;;;;;6299937;22;20181;-92
2022/10/26 05:34:17;;;;;;;25.73;18.70;;;8.90;99.90;;;;;;6199779;22;20464;31
2022/10/26 06:21:08;;;;;;;24.45;16.77;;;9.60;99.90;;;;;;6290857;22;20242;-90
2022/10/26 06:23:57;;;;;;;29.92;16.85;;;9.50;99.90;;;;;;6236912;22;20228;-91
2022/10/26 06:31:44;;;;;;;29.95;17.00;;;9.80;99.90;;;;;;6237240;23;20183;-91
2022/10/26 06:34:14;;;;;;;23.60;16.83;;;9.70;99.90;;;;;;6237540;23;20214;-89
2022/10/26 07:06:16;;;;;;;26.08;13.55;;;10.80;99.90;;;;;;6197749;22;20172;-91
2022/10/26 07:08:43;;;;;;;17.85;12.45;;;11.30;99.90;;;;;;6221499;22;20266;-90
2022/10/26 07:11:10;;;;;;;11.90;10.48;;;11.40;99.90;;;;;;6183537;23;20182;-89
2022/10/26 07:13:38;;;;;;;11.23;9.63;;;11.70;99.90;;;;;;6233169;23;20207;-90
2022/10/26 07:16:06;;;;;;;11.40;8.38;;;12.30;99.90;;;;;;6253630;23;20176;-87
2022/10/26 07:18:33;;;;;;;10.45;8.55;;;13.00;99.90;;;;;;6225737;23;20210;-87
2022/10/26 07:21:00;;;;;;;7.72;6.63;;;13.90;99.90;;;;;;6226204;23;20242;-89
2022/10/26 07:23:27;;;;;;;7.30;6.60;;;14.70;99.90;;;;;;6226916;23;20510;-87
2022/10/26 07:25:58;;;;;;;10.57;7.30;;;15.70;99.90;;;;;;6227727;23;20190;-88
2022/10/26 07:28:26;;;;;;;7.90;6.93;;;16.80;99.90;;;;;;6251926;23;20491;-87
2022/10/26 07:30:52;;;;;;;9.83;7.00;;;17.30;99.90;;;;;;6224807;23;20447;-87
2022/10/26 07:33:21;;;;;;;8.17;6.30;;;18.50;99.90;;;;;;6224945;23;20463;-87
2022/10/26 07:35:48;;;;;;;6.83;5.80;;;19.60;99.90;;;;;;6231860;22;20426;-85
2022/10/26 07:38:15;;;;;;;7.67;5.30;;;20.70;99.90;;;;;;6266610;22;20371;-87
2022/10/26 07:40:42;;;;;;;7.07;6.10;;;21.40;99.90;;;;;;6241604;22;20351;-87
2022/10/26 07:43:09;;;;;;;6.00;5.03;;;21.80;99.90;;;;;;6240780;22;20382;-88
2022/10/26 07:45:39;;;;;;;6.83;6.23;;;22.50;99.90;;;;;;6261894;22;20414;-87
2022/10/26 07:48:06;;;;;;;9.03;7.23;;;22.90;99.90;;;;;;6253965;23;20362;-88
2022/10/26 07:50:33;;;;;;;9.93;6.73;;;23.30;99.90;;;;;;6226797;23;20368;-88
2022/10/26 07:53:00;;;;;;;11.43;6.10;;;23.80;99.90;;;;;;6226274;23;20500;-87
2022/10/26 07:55:27;;;;;;;10.80;6.83;;;24.30;99.90;;;;;;6226714;23;20403;-87
2022/10/26 07:57:54;;;;;;;8.13;7.33;;;24.60;99.90;;;;;;6252588;23;20540;-87
2022/10/26 08:00:22;;;;;;;11.43;7.30;;;24.20;99.90;;;;;;6225538;23;20364;-87
2022/10/26 08:02:49;;;;;;;10.30;6.20;;;24.70;99.90;;;;;;6224855;23;20401;-87
2022/10/26 08:05:16;;;;;;;7.50;6.77;;;25.20;99.90;;;;;;6226412;23;20426;-87
2022/10/26 08:07:44;;;;;;;8.10;6.07;;;25.70;99.90;;;;;;6225033;23;20834;-85
2022/10/26 08:10:12;;;;;;;8.13;5.87;;;25.50;99.90;;;;;;6250543;23;20449;-88
2022/10/26 08:12:40;;;;;;;6.60;6.00;;;25.50;99.90;;;;;;6250950;23;20612;-86
2022/10/26 08:15:08;;;;;;;8.40;5.90;;;24.90;99.90;;;;;;6251946;23;20661;-86
2022/10/26 08:17:35;;;;;;;7.97;6.73;;;24.70;99.90;;;;;;6251238;23;20628;-85
2022/10/26 08:20:02;;;;;;;7.07;6.47;;;24.10;99.90;;;;;;6250362;23;20393;-86
2022/10/26 08:22:30;;;;;;;13.33;8.47;;;23.60;99.90;;;;;;6224763;23;20409;-84
2022/10/26 08:24:57;;;;;;;12.90;8.10;;;24.30;99.90;;;;;;6251022;23;20412;-86
2022/10/26 08:27:24;;;;;;;14.03;8.47;;;25.00;99.90;;;;;;6224251;23;20459;-86
2022/10/26 08:29:52;;;;;;;8.67;7.87;;;25.10;99.90;;;;;;6224125;23;20418;-85
2022/10/26 08:32:19;;;;;;;9.20;6.80;;;25.70;99.90;;;;;;6224333;23;20640;-85
2022/10/26 08:34:46;;;;;;;9.00;6.97;;;26.00;99.90;;;;;;6223738;23;20484;-84
2022/10/26 08:37:13;;;;;;;9.37;6.70;;;26.00;99.90;;;;;;6251206;23;20397;-84
2022/10/26 08:39:40;;;;;;;7.63;5.90;;;26.00;99.90;;;;;;6250878;23;20376;-85
2022/10/26 08:42:17;;;;;;;6.47;5.83;;;25.70;99.90;;;;;;6250206;23;20400;-84
2022/10/26 08:44:47;;;;;;;9.77;6.27;;;24.90;99.90;;;;;;6250798;23;20632;-83
2022/10/26 08:47:21;;;;;;;6.37;5.80;;;24.40;99.90;;;;;;6224017;23;20466;-85
2022/10/26 08:49:57;;;;;;;6.90;6.17;;;24.10;99.90;;;;;;6223779;23;20373;-85
2022/10/26 08:52:40;;;;;;;8.47;5.60;;;24.30;99.90;;;;;;6250380;23;20479;-85
2022/10/26 08:55:14;;;;;;;20.80;7.77;;;24.40;99.90;;;;;;6250348;23;20391;-85
2022/10/26 08:57:42;;;;;;;12.00;10.80;;;23.30;99.90;;;;;;6251596;23;20770;-84
2022/10/26 09:00:14;;;;;;;8.53;6.93;;;22.10;99.90;;;;;;6224988;23;20383;-84
2022/10/26 09:02:41;;;;;;;9.60;6.33;;;21.40;99.90;;;;;;6256900;23;20373;-85
2022/10/26 09:05:16;;;;;;;9.33;6.80;;;20.70;99.90;;;;;;6251996;23;20661;-84
2022/10/26 09:08:23;;;;;;;8.60;6.60;;;20.40;99.90;;;;;;6250636;23;20379;-84
2022/10/26 09:10:58;;;;;;;8.90;6.60;;;19.70;99.90;;;;;;6251034;23;20387;-84
2022/10/26 09:13:49;;;;;;;7.33;6.10;;;19.40;99.90;;;;;;6250744;23;20610;-84
2022/10/26 09:16:29;;;;;;;6.33;5.73;;;19.10;99.90;;;;;;6250811;23;20678;-84
2022/10/26 09:19:22;;;;;;;5.27;4.80;;;18.80;99.90;;;;;;6223960;23;20444;-86
2022/10/26 09:22:05;;;;;;;9.97;5.50;;;18.40;99.90;;;;;;6225849;23;20397;-85
2022/10/26 09:24:46;;;;;;;8.33;4.30;;;18.00;99.90;;;;;;6237718;23;20550;-84
2022/10/26 09:27:16;;;;;;;5.10;4.60;;;17.70;99.90;;;;;;6252015;23;20428;-84
2022/10/26 09:29:43;;;;;;;5.07;4.60;;;17.50;99.90;;;;;;6250898;23;20798;-82
2022/10/26 09:32:18;;;;;;;4.90;4.40;;;17.20;99.90;;;;;;6250858;23;20431;-85
2022/10/26 09:34:51;;;;;;;7.23;4.40;;;17.30;99.90;;;;;;6250806;23;20483;-85
2022/10/26 09:37:33;;;;;;;5.43;4.87;;;17.10;99.90;;;;;;6250938;23;20446;-84
2022/10/26 09:40:28;;;;;;;9.33;5.30;;;17.30;99.90;;;;;;6251673;23;20404;-85
2022/10/26 09:42:58;;;;;;;4.90;4.50;;;17.00;99.90;;;;;;6227396;23;20383;-85
2022/10/26 09:45:50;;;;;;;5.57;4.40;;;16.90;99.90;;;;;;6234728;23;20389;-84
2022/10/26 09:48:20;;;;;;;6.03;3.83;;;16.70;99.90;;;;;;6240729;23;20646;-84
2022/10/26 09:50:48;;;;;;;9.53;6.43;;;16.70;99.90;;;;;;6252417;22;20440;-83
2022/10/26 09:53:15;;;;;;;9.70;5.40;;;16.90;99.90;;;;;;6224212;23;20381;-84
2022/10/26 09:55:47;;;;;;;6.63;4.93;;;17.00;99.90;;;;;;6225424;23;20383;-86
2022/10/26 09:58:29;;;;;;;7.23;4.17;;;16.80;99.90;;;;;;6253569;23;20381;-85
2022/10/26 10:00:56;;;;;;;8.17;4.13;;;16.70;99.90;;;;;;6249931;23;20403;-83
2022/10/26 10:03:31;;;;;;;4.97;4.47;;;16.70;99.90;;;;;;6224372;23;20467;-84
2022/10/26 10:06:17;;;;;;;4.37;3.97;;;16.70;99.90;;;;;;6251346;23;20601;-84
2022/10/26 10:09:10;;;;;;;6.20;4.23;;;16.80;99.90;;;;;;6223929;23;20352;-85
2022/10/26 10:11:40;;;;;;;7.37;4.23;;;16.80;99.90;;;;;;6225704;23;20475;-84
2022/10/26 10:14:12;;;;;;;4.43;4.03;;;16.80;99.90;;;;;;6223954;23;20410;-85
2022/10/26 10:16:41;;;;;;;5.63;3.60;;;16.80;99.90;;;;;;6249426;23;20379;-85
2022/10/26 10:19:22;;;;;;;4.90;4.40;;;16.90;99.90;;;;;;6223239;23;20383;-83
2022/10/26 10:21:54;;;;;;;5.37;4.50;;;17.00;99.90;;;;;;6224313;23;20364;-84
2022/10/26 10:24:27;;;;;;;5.07;4.40;;;17.10;99.90;;;;;;6225468;23;20434;-86
2022/10/26 10:27:02;;;;;;;4.90;4.37;;;17.10;99.90;;;;;;6252018;23;20581;-84
2022/10/26 10:29:39;;;;;;;9.23;5.03;;;17.10;99.90;;;;;;6224126;23;20399;-86
2022/10/26 10:32:30;;;;;;;5.60;5.10;;;17.00;99.90;;;;;;6249744;23;20616;-85
2022/10/26 10:35:23;;;;;;;5.67;5.07;;;17.00;99.90;;;;;;6250042;23;20463;-84
2022/10/26 10:37:51;;;;;;;4.80;4.30;;;17.00;99.90;;;;;;6224841;23;20470;-85
2022/10/26 10:40:21;;;;;;;5.47;4.90;;;17.10;99.90;;;;;;6223559;23;20364;-82
2022/10/26 10:42:51;;;;;;;8.00;4.03;;;17.30;99.90;;;;;;6250127;23;20379;-84
2022/10/26 10:45:28;;;;;;;4.33;3.90;;;17.50;99.90;;;;;;6223940;23;20382;-83
2022/10/26 10:48:00;;;;;;;8.23;6.83;;;17.60;99.90;;;;;;6223748;23;20348;-84
2022/10/26 10:50:29;;;;;;;5.87;5.07;;;17.60;99.90;;;;;;6250062;23;20397;-83
2022/10/26 10:53:18;;;;;;;4.37;4.07;;;17.70;99.90;;;;;;6251492;23;20401;-83
2022/10/26 10:56:01;;;;;;;8.77;4.00;;;17.70;99.90;;;;;;6227122;23;20343;-83
2022/10/26 10:59:02;;;;;;;5.90;3.30;;;17.50;99.90;;;;;;6226211;23;20344;-84
2022/10/26 11:01:36;;;;;;;5.20;3.10;;;17.50;99.90;;;;;;6225101;23;20622;-84
2022/10/26 11:04:27;;;;;;;4.53;3.20;;;17.80;99.90;;;;;;6226655;23;20392;-83
2022/10/26 11:06:58;;;;;;;5.90;3.40;;;17.70;99.90;;;;;;6226072;23;20364;-84
2022/10/26 11:09:29;;;;;;;3.60;3.30;;;17.90;99.90;;;;;;6251360;23;20600;-84
2022/10/26 11:12:04;;;;;;;5.27;3.00;;;17.90;99.90;;;;;;6252688;23;20344;-84
2022/10/26 11:14:33;;;;;;;2.60;2.40;;;17.80;99.90;;;;;;6253596;23;20572;-84
2022/10/26 11:17:12;;;;;;;3.47;2.90;;;17.70;99.90;;;;;;6252325;23;20393;-84
2022/10/26 11:19:44;;;;;;;7.57;2.80;;;17.60;99.90;;;;;;6252895;23;20697;-84
2022/10/26 11:22:15;;;;;;;6.53;3.77;;;17.50;99.90;;;;;;6225502;23;20377;-85
2022/10/26 11:25:00;;;;;;;4.33;3.30;;;17.40;99.90;;;;;;6253007;23;20403;-84
2022/10/26 11:27:44;;;;;;;3.07;2.77;;;17.60;99.90;;;;;;6226619;23;20369;-84
2022/10/26 11:30:20;;;;;;;3.60;3.30;;;17.70;99.90;;;;;;6251543;23;20377;-85
2022/10/26 11:33:03;;;;;;;4.20;3.20;;;17.70;99.90;;;;;;6252810;23;20729;-84
2022/10/26 11:35:37;;;;;;;3.90;3.43;;;17.80;99.90;;;;;;6253186;23;20442;-84
2022/10/26 11:38:30;;;;;;;3.70;2.90;;;17.70;99.90;;;;;;6252167;23;20669;-84
2022/10/26 11:41:21;;;;;;;3.87;3.47;;;17.70;99.90;;;;;;6228173;23;20352;-84
2022/10/26 11:43:53;;;;;;;10.83;3.30;;;17.70;99.90;;;;;;6226556;23;20394;-85
2022/10/26 11:46:23;;;;;;;5.30;2.50;;;17.50;99.90;;;;;;6254623;23;20348;-87
2022/10/26 11:48:57;;;;;;;2.70;2.50;;;17.60;99.90;;;;;;6255791;23;20360;-85
2022/10/26 11:51:45;;;;;;;3.40;3.10;;;17.50;99.90;;;;;;6257304;23;20409;-85
2022/10/26 11:54:20;;;;;;;4.83;2.70;;;17.50;99.90;;;;;;6255184;23;20447;-84
2022/10/26 11:56:54;;;;;;;6.87;3.60;;;17.70;99.90;;;;;;6254902;23;20380;-84
2022/10/26 11:59:29;;;;;;;5.43;2.97;;;17.70;99.90;;;;;;6229752;23;20467;-85
2022/10/26 12:02:11;;;;;;;4.57;2.70;;;17.70;99.90;;;;;;6233667;23;20393;-85
2022/10/26 12:04:40;;;;;;;2.93;2.27;;;17.70;99.90;;;;;;6259726;23;20387;-86
2022/10/26 12:07:18;;;;;;;2.83;2.53;;;17.60;99.90;;;;;;6237956;23;20475;-86
2022/10/26 12:09:45;;;;;;;3.73;2.63;;;17.50;99.90;;;;;;6257629;23;20459;-86
2022/10/26 12:12:28;;;;;;;3.20;2.67;;;17.60;99.90;;;;;;6253959;23;20380;-86
2022/10/26 12:15:40;;;;;;;10.50;4.53;;;17.70;99.90;;;;;;6253790;23;20396;-85
2022/10/26 12:18:47;;;;;;;3.77;3.37;;;18.00;99.90;;;;;;6161759;23;20407;-85
2022/10/26 12:21:30;;;;;;;3.13;2.93;;;18.30;99.90;;;;;;6160726;23;20647;-86
2022/10/26 12:23:59;;;;;;;4.33;2.40;;;18.20;99.90;;;;;;6250809;22;20480;-85
2022/10/26 12:26:26;;;;;;;2.53;2.33;;;18.20;99.90;;;;;;6241790;22;20363;-87
2022/10/26 12:29:02;;;;;;;5.63;2.47;;;18.20;99.90;;;;;;6268146;22;20376;-87
2022/10/26 12:31:38;;;;;;;3.10;2.63;;;18.10;99.90;;;;;;6267732;22;20423;-87
2022/10/26 12:34:44;;;;;;;2.50;2.30;;;18.00;99.90;;;;;;6263994;22;20419;-86
2022/10/26 12:37:30;;;;;;;3.83;2.40;;;17.90;99.90;;;;;;6261480;23;20359;-87
2022/10/26 12:40:34;;;;;;;6.67;3.67;;;17.90;99.90;;;;;;6257779;23;20352;-87
2022/10/26 12:43:13;;;;;;;3.70;2.33;;;18.00;99.90;;;;;;6227389;23;20383;-88
2022/10/26 12:46:12;;;;;;;3.03;2.00;;;18.40;99.90;;;;;;6227082;23;20469;-86
2022/10/26 12:48:44;;;;;;;5.57;2.50;;;18.30;99.90;;;;;;6226530;23;20375;-86
2022/10/26 12:51:37;;;;;;;5.43;2.53;;;18.10;99.90;;;;;;6252361;23;20466;-85
2022/10/26 12:54:30;;;;;;;3.67;2.60;;;18.00;99.90;;;;;;6263315;23;20409;-86
2022/10/26 12:57:07;;;;;;;2.30;2.10;;;18.00;99.90;;;;;;6235387;23;20464;-85
2022/10/26 12:59:43;;;;;;;5.03;2.60;;;18.20;99.90;;;;;;6260028;23;20393;-86
2022/10/26 13:02:28;;;;;;;4.03;2.50;;;18.00;99.90;;;;;;6259765;23;20377;-86
2022/10/26 13:05:20;;;;;;;3.47;2.43;;;18.00;99.90;;;;;;6259336;23;20355;-87
2022/10/26 13:07:48;;;;;;;2.63;2.37;;;17.90;99.90;;;;;;6255681;23;20374;-84
2022/10/26 13:10:23;;;;;;;4.20;2.50;;;17.90;99.90;;;;;;6257590;23;20411;-85
2022/10/26 13:12:51;;;;;;;5.70;2.97;;;18.00;99.90;;;;;;6226379;23;20393;-85
2022/10/26 13:15:27;;;;;;;5.80;2.70;;;18.10;99.90;;;;;;6253486;23;20445;-86
2022/10/26 13:18:06;;;;;;;4.27;2.47;;;18.10;99.90;;;;;;6251812;23;20408;-85
2022/10/26 13:20:35;;;;;;;6.67;3.10;;;17.90;99.90;;;;;;6252726;23;20586;-85
2022/10/26 13:23:15;;;;;;;2.77;2.57;;;17.90;99.90;;;;;;6254601;23;20399;-84
2022/10/26 13:26:04;;;;;;;3.13;1.97;;;17.70;99.90;;;;;;6265768;22;20371;-86
2022/10/26 13:28:37;;;;;;;2.40;2.20;;;17.50;99.90;;;;;;6241280;23;20445;-86
2022/10/26 13:31:09;;;;;;;3.20;2.30;;;17.30;99.90;;;;;;6257362;23;20435;-86
2022/10/26 13:33:39;;;;;;;4.87;3.27;;;17.70;99.90;;;;;;6254392;23;20375;-86
2022/10/26 13:36:26;;;;;;;3.00;2.80;;;17.90;99.90;;;;;;6252320;23;20413;-85
2022/10/26 13:38:56;;;;;;;2.67;2.47;;;17.90;99.90;;;;;;6235994;23;20424;-86
2022/10/26 13:41:33;;;;;;;3.60;2.37;;;17.90;99.90;;;;;;6254565;23;20392;-87
2022/10/26 13:44:05;;;;;;;2.40;2.20;;;17.70;99.90;;;;;;6256415;23;20413;-84
2022/10/26 13:46:37;;;;;;;4.37;2.70;;;17.50;99.90;;;;;;6256169;23;20407;-85
2022/10/26 13:49:20;;;;;;;3.33;2.23;;;17.90;99.90;;;;;;6258131;23;20370;-85
2022/10/26 13:51:51;;;;;;;3.93;3.03;;;18.20;99.90;;;;;;6257853;23;20465;-87
2022/10/26 13:54:30;;;;;;;6.93;3.33;;;18.30;99.90;;;;;;6263115;23;20952;-85
2022/10/26 13:57:07;;;;;;;4.00;2.80;;;18.40;99.90;;;;;;6259877;23;20628;-86
2022/10/26 13:59:41;;;;;;;4.30;2.70;;;18.30;99.90;;;;;;6229106;23;20408;-86
2022/10/26 14:02:20;;;;;;;3.97;2.90;;;18.20;99.90;;;;;;6227341;23;20443;-87
2022/10/26 14:04:51;;;;;;;4.63;2.17;;;18.00;99.90;;;;;;6228550;23;20498;-86
2022/10/26 14:07:24;;;;;;;4.77;2.27;;;17.90;99.90;;;;;;6254347;23;20393;-88
2022/10/26 14:09:56;;;;;;;2.73;2.53;;;17.70;99.90;;;;;;6227501;23;20575;-87
2022/10/26 14:12:29;;;;;;;2.33;2.23;;;17.60;99.90;;;;;;6254765;23;20520;-86
2022/10/26 14:15:07;;;;;;;2.67;2.47;;;17.70;99.90;;;;;;6254004;23;20443;-86
2022/10/26 14:17:36;;;;;;;8.27;2.17;;;17.70;99.90;;;;;;6254983;23;20436;-85
2022/10/26 14:20:33;;;;;;;5.67;3.20;;;17.90;99.90;;;;;;6254554;23;20409;-86
2022/10/26 14:23:33;;;;;;;8.70;3.00;;;18.00;99.90;;;;;;6254211;23;20424;-86
2022/10/26 14:26:05;;;;;;;3.50;1.90;;;18.00;99.90;;;;;;6253876;23;20573;-86
2022/10/26 14:28:44;;;;;;;2.80;2.60;;;18.00;99.90;;;;;;6227901;23;20451;-87
2022/10/26 14:31:19;;;;;;;3.10;2.83;;;18.00;99.90;;;;;;6255080;23;20376;-88
2022/10/26 14:33:47;;;;;;;3.53;2.10;;;17.90;99.90;;;;;;6257102;23;20381;-86
2022/10/26 14:36:16;;;;;;;1.70;1.60;;;17.90;99.90;;;;;;6255178;23;20415;-86
2022/10/26 14:38:50;;;;;;;3.53;3.03;;;17.90;99.90;;;;;;6228947;23;20414;-86
2022/10/26 14:41:23;;;;;;;4.20;2.70;;;17.80;99.90;;;;;;6254362;23;20348;-86
2022/10/26 14:43:55;;;;;;;3.50;2.63;;;17.90;99.90;;;;;;6228818;23;20595;-87
2022/10/26 14:46:22;;;;;;;2.30;1.70;;;17.90;99.90;;;;;;6255132;23;20367;-85
2022/10/26 14:48:56;;;;;;;4.63;2.83;;;17.70;99.90;;;;;;6233216;23;20391;-86
2022/10/26 14:51:27;;;;;;;2.23;2.03;;;17.60;99.90;;;;;;6230948;23;20488;-85
2022/10/26 14:53:59;;;;;;;1.93;1.83;;;17.60;99.90;;;;;;6230022;23;20431;-86
2022/10/26 14:56:40;;;;;;;14.20;3.73;;;17.70;99.90;;;;;;6254738;23;20466;-87
2022/10/26 14:59:21;;;;;;;5.07;2.40;;;17.70;99.90;;;;;;6252804;23;20482;-85
2022/10/26 15:01:52;;;;;;;4.83;2.20;;;17.60;99.90;;;;;;6227401;23;20449;-86
2022/10/26 15:04:33;;;;;;;9.97;2.50;;;17.60;99.90;;;;;;6253457;23;20379;-86
2022/10/26 15:07:15;;;;;;;3.40;2.10;;;17.40;99.90;;;;;;6229322;23;20733;-86
2022/10/26 15:09:49;;;;;;;7.03;2.20;;;17.20;99.90;;;;;;6254262;23;20409;-84
2022/10/26 15:12:30;;;;;;;9.43;2.60;;;17.20;99.90;;;;;;6259662;23;20377;-87
2022/10/26 15:15:17;;;;;;;4.10;2.23;;;17.20;99.90;;;;;;6258289;23;20432;-86
2022/10/26 15:17:55;;;;;;;2.30;2.10;;;17.00;99.90;;;;;;6254683;23;20428;-87
2022/10/26 15:20:27;;;;;;;3.50;3.20;;;17.00;99.90;;;;;;6228574;23;20419;-86
2022/10/26 15:23:02;;;;;;;2.73;2.20;;;17.10;99.90;;;;;;6229088;23;20405;-86
2022/10/26 15:25:33;;;;;;;6.40;2.70;;;17.00;99.90;;;;;;6254591;23;20439;-86
2022/10/26 15:28:20;;;;;;;3.87;2.57;;;16.90;99.90;;;;;;6233032;23;20414;-86
2022/10/26 15:30:59;;;;;;;5.43;2.40;;;16.90;99.90;;;;;;6263315;23;20436;-86
2022/10/26 15:33:35;;;;;;;4.27;2.50;;;16.80;99.90;;;;;;6233004;23;20453;-87
2022/10/26 15:36:17;;;;;;;3.80;2.97;;;16.80;99.90;;;;;;6258149;23;20421;-85
2022/10/26 15:38:54;;;;;;;9.30;3.37;;;16.60;99.90;;;;;;6231312;23;20373;-88
2022/10/26 15:41:30;;;;;;;4.93;2.60;;;16.60;99.90;;;;;;6226780;23;20415;-86
2022/10/26 15:44:07;;;;;;;6.70;3.20;;;16.50;99.90;;;;;;6254849;23;20448;-87
2022/10/26 15:46:37;;;;;;;2.80;2.60;;;16.40;99.90;;;;;;6255989;23;20817;-86
2022/10/26 15:49:16;;;;;;;4.17;3.77;;;16.40;99.90;;;;;;6230043;23;20404;-86
2022/10/26 15:51:45;;;;;;;5.97;3.60;;;16.40;99.90;;;;;;6256282;23;20471;-86
2022/10/26 15:54:13;;;;;;;9.27;4.80;;;16.30;99.90;;;;;;6229542;23;20651;-87
2022/10/26 15:56:42;;;;;;;6.70;4.30;;;16.10;99.90;;;;;;6206276;23;20433;-86
2022/10/26 15:59:23;;;;;;;6.87;4.50;;;16.10;99.90;;;;;;6232118;23;20466;-87
2022/10/26 16:01:55;;;;;;;5.53;3.47;;;16.10;99.90;;;;;;6229517;23;20387;-87
2022/10/26 16:04:25;;;;;;;7.50;3.70;;;16.20;99.90;;;;;;6230987;23;20408;-87
2022/10/26 16:06:59;;;;;;;6.20;4.07;;;16.10;99.90;;;;;;6231670;23;20401;-87
2022/10/26 16:09:29;;;;;;;8.30;4.53;;;16.00;99.90;;;;;;6232584;23;20408;-87
2022/10/26 16:12:10;;;;;;;6.30;4.57;;;16.00;99.90;;;;;;6237826;23;20693;-88
2022/10/26 16:14:40;;;;;;;4.33;3.93;;;16.00;99.90;;;;;;6237400;23;20377;-87
2022/10/26 16:17:34;;;;;;;8.87;5.03;;;15.90;99.90;;;;;;6263497;23;20368;-86
2022/10/26 16:20:05;;;;;;;9.43;5.57;;;15.80;99.90;;;;;;6265907;23;20409;-87
2022/10/26 16:22:39;;;;;;;12.13;6.80;;;15.70;99.90;;;;;;6238370;23;20400;-89
2022/10/26 16:25:12;;;;;;;11.33;7.73;;;15.70;99.90;;;;;;6233225;23;20397;-88
2022/10/26 16:27:49;;;;;;;12.60;7.90;;;15.60;99.90;;;;;;6210841;23;20400;-87
2022/10/26 16:30:18;;;;;;;11.67;8.20;;;15.50;99.90;;;;;;6233105;23;20396;-88
2022/10/26 16:33:00;;;;;;;11.40;7.57;;;15.40;99.90;;;;;;6258125;23;20433;-87
2022/10/26 16:35:29;;;;;;;20.43;6.83;;;15.40;99.90;;;;;;6231771;23;20699;-87
2022/10/26 16:37:57;;;;;;;9.93;7.80;;;15.30;99.90;;;;;;6233516;23;20422;-86
2022/10/26 16:40:29;;;;;;;12.23;6.82;;;15.30;99.90;;;;;;6264598;22;20417;-87
2022/10/26 16:42:59;;;;;;;7.73;6.00;;;15.20;99.90;;;;;;6222300;22;20179;-88
2022/10/26 16:45:31;;;;;;;9.47;5.70;;;15.10;99.90;;;;;;6218146;23;20408;-88
2022/10/26 16:48:04;;;;;;;9.80;7.53;;;15.10;99.90;;;;;;6232465;23;20409;-88
2022/10/26 16:50:33;;;;;;;12.25;7.35;;;14.90;99.90;;;;;;6235537;23;20551;-87
2022/10/26 16:53:02;;;;;;;9.57;7.40;;;14.60;99.90;;;;;;6211976;23;20186;-87
2022/10/26 16:55:31;;;;;;;8.48;6.65;;;14.70;99.90;;;;;;6257308;23;20437;-86
2022/10/26 16:57:58;;;;;;;12.80;5.80;;;14.60;99.90;;;;;;6258299;23;20178;-90
2022/10/26 17:00:34;;;;;;;8.15;6.18;;;14.50;99.90;;;;;;6233203;23;20199;-87
2022/10/26 17:03:03;;;;;;;7.95;5.95;;;14.50;99.90;;;;;;6259086;23;20183;-87
2022/10/26 17:05:33;;;;;;;8.60;5.97;;;14.60;99.90;;;;;;6192303;23;20235;-89
2022/10/26 17:08:02;;;;;;;11.30;6.90;;;14.40;99.90;;;;;;6242767;23;20175;-89
2022/10/26 17:10:39;;;;;;;10.18;7.43;;;14.40;99.90;;;;;;6237434;23;20238;-88
2022/10/26 17:13:09;;;;;;;10.70;7.53;;;14.40;99.90;;;;;;6261512;23;20445;-89
2022/10/26 17:15:36;;;;;;;15.75;7.00;;;14.50;99.90;;;;;;6236777;23;20257;-88
2022/10/26 17:18:03;;;;;;;10.85;7.97;;;14.30;99.90;;;;;;6269845;22;20216;-87
2022/10/26 17:20:30;;;;;;;16.20;7.70;;;14.10;99.90;;;;;;6246762;22;20164;-86
2022/10/26 17:23:01;;;;;;;11.73;6.90;;;14.20;99.90;;;;;;6273368;22;20186;-87
2022/10/26 17:25:28;;;;;;;12.38;7.95;;;14.20;99.90;;;;;;6222157;22;20191;-86
2022/10/26 17:27:57;;;;;;;11.40;8.00;;;14.20;99.90;;;;;;6246862;22;20182;-87
2022/10/26 17:30:25;;;;;;;11.27;7.53;;;14.20;99.90;;;;;;6270713;22;20175;-88
2022/10/26 17:33:06;;;;;;;11.43;7.03;;;14.10;99.90;;;;;;6265296;23;20223;-86
2022/10/26 17:35:38;;;;;;;8.88;7.10;;;14.00;99.90;;;;;;6238876;23;20190;-87
2022/10/26 17:38:22;;;;;;;11.73;7.40;;;14.20;99.90;;;;;;6260169;23;20210;-87
2022/10/26 17:40:53;;;;;;;11.95;8.07;;;14.10;99.90;;;;;;6258396;23;20184;-89
2022/10/26 17:43:25;;;;;;;12.55;8.57;;;14.10;99.90;;;;;;6230690;23;20182;-88
2022/10/26 17:46:02;;;;;;;9.50;7.22;;;14.10;99.90;;;;;;6257957;23;20210;-88
2022/10/26 17:48:38;;;;;;;18.63;7.40;;;14.00;99.90;;;;;;6233870;23;20184;-87
2022/10/26 17:51:20;;;;;;;9.45;7.47;;;13.90;99.90;;;;;;6231985;23;20198;-88
2022/10/26 17:53:50;;;;;;;13.32;6.95;;;13.90;99.90;;;;;;6232870;23;20440;-89
2022/10/26 17:56:23;;;;;;;23.08;7.40;;;13.80;99.90;;;;;;6260176;23;20191;-90
2022/10/26 17:59:00;;;;;;;15.20;9.50;;;13.80;99.90;;;;;;6236078;23;20208;-90
2022/10/26 18:01:32;;;;;;;10.00;8.15;;;13.80;99.90;;;;;;6236795;23;20171;-88
2022/10/26 18:04:05;;;;;;;17.35;9.13;;;13.70;99.90;;;;;;6237932;23;20168;-89
2022/10/26 18:06:32;;;;;;;11.77;7.50;;;13.70;99.90;;;;;;6233086;23;20234;-86
2022/10/26 18:09:01;;;;;;;12.70;8.38;;;13.80;99.90;;;;;;6230699;23;20457;-89
2022/10/26 18:11:35;;;;;;;9.20;8.30;;;13.60;99.90;;;;;;6255857;23;20186;-88
2022/10/26 18:14:02;;;;;;;14.90;7.55;;;13.50;99.90;;;;;;6236971;23;20160;-87
2022/10/26 18:16:35;;;;;;;8.48;6.85;;;13.50;99.90;;;;;;6227276;22;20200;-88
2022/10/26 18:19:12;;;;;;;9.75;7.80;;;13.60;99.90;;;;;;6187507;23;20195;-89
2022/10/26 18:21:44;;;;;;;10.55;8.45;;;13.70;99.90;;;;;;6232972;23;20182;-90
2022/10/26 18:24:19;;;;;;;14.60;9.07;;;13.60;99.90;;;;;;6235843;23;20447;-89
2022/10/26 18:26:47;;;;;;;14.70;8.85;;;13.50;99.90;;;;;;6232674;23;20230;-88
2022/10/26 18:29:19;;;;;;;12.90;8.75;;;13.30;99.90;;;;;;6211236;23;20198;-88
2022/10/26 18:31:51;;;;;;;13.90;8.18;;;13.30;99.90;;;;;;6236597;23;20198;-89
2022/10/26 18:34:20;;;;;;;12.50;9.38;;;13.30;99.90;;;;;;6243438;22;20155;-88
2022/10/26 18:36:53;;;;;;;12.43;8.43;;;13.40;99.90;;;;;;6241303;23;20203;-87
2022/10/26 18:39:21;;;;;;;13.07;9.10;;;13.40;99.90;;;;;;6215956;23;20210;-87
2022/10/26 18:42:02;;;;;;;14.80;9.27;;;13.20;99.90;;;;;;6266117;22;20489;-88
2022/10/26 18:44:30;;;;;;;13.70;10.60;;;13.10;99.90;;;;;;6261870;23;20179;-88
2022/10/26 18:47:00;;;;;;;11.85;9.63;;;12.90;99.90;;;;;;6240079;23;20194;-89
2022/10/26 18:49:31;;;;;;;13.23;9.70;;;12.70;99.90;;;;;;6266242;23;20171;-90
2022/10/26 18:52:15;;;;;;;15.20;9.38;;;12.70;99.90;;;;;;6242384;23;20246;-86
2022/10/26 18:54:55;;;;;;;15.65;10.93;;;12.60;99.90;;;;;;6241480;22;20203;-88
2022/10/26 18:57:25;;;;;;;15.02;9.90;;;12.70;99.90;;;;;;6241238;23;20195;-87
2022/10/26 18:59:54;;;;;;;13.98;10.63;;;12.70;99.90;;;;;;6242813;22;20167;-88
2022/10/26 19:02:24;;;;;;;13.70;10.52;;;12.70;99.90;;;;;;6242992;22;20190;-88
2022/10/26 19:04:57;;;;;;;20.23;12.48;;;12.70;99.90;;;;;;6244807;23;20174;-88
2022/10/26 19:07:28;;;;;;;17.20;11.88;;;12.70;99.90;;;;;;6268455;22;20187;-89
2022/10/26 19:10:01;;;;;;;17.90;11.98;;;12.70;99.90;;;;;;6267992;23;20163;-91
2022/10/26 19:12:29;;;;;;;16.25;11.98;;;12.80;99.90;;;;;;6265410;22;20207;-89
2022/10/26 19:14:57;;;;;;;15.25;11.82;;;12.80;99.90;;;;;;6237224;23;20183;-90